createdAt,value
2022-07-27T00:01:51.430Z,100.00
2022-07-27T00:04:19.266Z,100.00
2022-07-27T00:06:46.685Z,100.00
2022-07-27T00:09:13.977Z,100.00
2022-07-27T00:11:40.921Z,100.00
2022-07-27T00:14:07.629Z,100.00
2022-07-27T00:16:34.483Z,100.00
2022-07-27T00:19:01.207Z,100.00
2022-07-27T00:21:28.017Z,100.00
2022-07-27T00:23:55.655Z,100.00
2022-07-27T00:26:22.578Z,100.00
2022-07-27T00:28:50.117Z,100.00
2022-07-27T00:31:17.269Z,100.00
2022-07-27T00:33:46.556Z,100.00
2022-07-27T00:36:15.519Z,100.00
2022-07-27T00:38:42.217Z,100.00
2022-07-27T00:41:08.959Z,100.00
2022-07-27T00:43:56.455Z,100.00
2022-07-27T00:46:25.002Z,100.00
2022-07-27T00:48:53.573Z,100.00
2022-07-27T00:51:21.786Z,100.00
2022-07-27T00:53:49.425Z,100.00
2022-07-27T00:56:16.641Z,100.00
2022-07-27T00:58:47.533Z,100.00
2022-07-27T01:01:14.621Z,100.00
2022-07-27T01:03:41.431Z,100.00
2022-07-27T01:06:09.078Z,100.00
2022-07-27T01:08:37.090Z,100.00
2022-07-27T01:11:04.444Z,100.00
2022-07-27T01:13:31.160Z,100.00
2022-07-27T01:15:58.949Z,100.00
2022-07-27T01:18:32.038Z,100.00
2022-07-27T01:21:00.406Z,100.00
2022-07-27T01:23:28.317Z,100.00
2022-07-27T01:25:55.376Z,100.00
2022-07-27T01:28:22.103Z,100.00
2022-07-27T01:30:48.950Z,100.00
2022-07-27T01:33:16.192Z,100.00
2022-07-27T01:35:42.914Z,100.00
2022-07-27T01:38:11.440Z,100.00
2022-07-27T01:40:39.827Z,100.00
2022-07-27T01:43:07.024Z,100.00
2022-07-27T01:45:34.394Z,100.00
2022-07-27T01:48:01.277Z,100.00
2022-07-27T01:50:28.053Z,100.00
2022-07-27T01:52:54.701Z,100.00
2022-07-27T01:55:21.370Z,100.00
2022-07-27T01:57:48.184Z,100.00
2022-07-27T02:00:15.176Z,100.00
2022-07-27T02:02:41.897Z,100.00
2022-07-27T02:05:12.265Z,100.00
2022-07-27T02:07:42.694Z,100.00
2022-07-27T02:10:12.768Z,100.00
2022-07-27T02:12:39.866Z,100.00
2022-07-27T02:15:16.142Z,100.00
2022-07-27T02:17:47.025Z,100.00
2022-07-27T02:20:16.866Z,100.00
2022-07-27T02:22:44.564Z,100.00
2022-07-27T02:25:13.764Z,100.00
2022-07-27T02:27:41.842Z,100.00
2022-07-27T02:30:10.306Z,100.00
2022-07-27T02:32:37.065Z,100.00
2022-07-27T02:35:19.070Z,100.00
2022-07-27T02:37:48.721Z,100.00
2022-07-27T02:40:17.697Z,100.00
2022-07-27T02:42:45.867Z,100.00
2022-07-27T02:45:13.616Z,100.00
2022-07-27T02:47:41.644Z,100.00
2022-07-27T02:50:09.900Z,100.00
2022-07-27T02:52:37.580Z,100.00
2022-07-27T02:55:05.224Z,100.00
2022-07-27T02:57:34.430Z,100.00
2022-07-27T03:00:02.678Z,100.00
2022-07-27T03:02:29.453Z,100.00
2022-07-27T03:04:56.062Z,100.00
2022-07-27T03:07:22.729Z,100.00
2022-07-27T03:09:52.450Z,100.00
2022-07-27T03:12:19.408Z,100.00
2022-07-27T03:14:47.025Z,100.00
2022-07-27T03:17:13.711Z,100.00
2022-07-27T03:19:40.412Z,100.00
2022-07-27T03:22:07.085Z,100.00
2022-07-27T03:24:33.732Z,100.00
2022-07-27T03:27:00.492Z,100.00
2022-07-27T03:29:28.166Z,100.00
2022-07-27T03:31:56.658Z,100.00
2022-07-27T03:34:23.456Z,100.00
2022-07-27T03:36:50.634Z,100.00
2022-07-27T03:39:17.528Z,100.00
2022-07-27T03:41:44.189Z,100.00
2022-07-27T03:44:13.134Z,100.00
2022-07-27T03:46:40.511Z,100.00
2022-07-27T03:49:14.480Z,100.00
2022-07-27T03:51:42.171Z,100.00
2022-07-27T03:54:08.919Z,100.00
2022-07-27T03:56:35.756Z,100.00
2022-07-27T03:59:02.406Z,100.00
2022-07-27T04:01:29.202Z,100.00
2022-07-27T04:03:55.982Z,100.00
2022-07-27T04:06:22.673Z,100.00
2022-07-27T04:08:53.940Z,100.00
2022-07-27T04:11:24.261Z,100.00
2022-07-27T04:13:55.731Z,100.00
2022-07-27T04:16:22.568Z,100.00
2022-07-27T04:18:49.417Z,100.00
2022-07-27T04:21:16.183Z,100.00
2022-07-27T04:23:42.870Z,100.00
2022-07-27T04:26:09.605Z,100.00
2022-07-27T04:28:36.227Z,100.00
2022-07-27T04:31:02.976Z,100.00
2022-07-27T04:33:29.644Z,100.00
2022-07-27T04:35:56.385Z,100.00
2022-07-27T04:38:23.053Z,100.00
2022-07-27T04:40:51.072Z,100.00
2022-07-27T04:43:19.371Z,100.00
2022-07-27T04:45:47.828Z,100.00
2022-07-27T04:48:14.729Z,100.00
2022-07-27T04:50:43.103Z,100.00
2022-07-27T04:53:10.720Z,100.00
2022-07-27T04:55:37.914Z,100.00
2022-07-27T04:58:04.568Z,100.00
2022-07-27T05:00:31.174Z,100.00
2022-07-27T05:02:59.962Z,100.00
2022-07-27T05:05:26.580Z,100.00
2022-07-27T05:07:55.778Z,100.00
2022-07-27T05:10:22.565Z,100.00
2022-07-27T05:12:50.139Z,100.00
2022-07-27T05:15:17.421Z,100.00
2022-07-27T05:17:44.210Z,100.00
2022-07-27T05:20:11.692Z,100.00
2022-07-27T05:22:39.997Z,100.00
2022-07-27T05:25:08.219Z,100.00
2022-07-27T05:27:36.157Z,100.00
2022-07-27T05:30:06.275Z,100.00
2022-07-27T05:32:32.929Z,100.00
2022-07-27T05:34:59.765Z,100.00
2022-07-27T05:37:26.437Z,100.00
2022-07-27T05:39:53.097Z,100.00
2022-07-27T05:42:19.717Z,100.00
2022-07-27T05:44:47.833Z,100.00
2022-07-27T05:47:14.554Z,100.00
2022-07-27T05:49:41.601Z,100.00
2022-07-27T05:52:08.489Z,100.00
2022-07-27T05:54:35.157Z,100.00
2022-07-27T05:57:01.822Z,100.00
2022-07-27T05:59:29.501Z,100.00
2022-07-27T06:01:56.107Z,100.00
2022-07-27T06:04:22.783Z,100.00
2022-07-27T06:07:07.785Z,100.00
2022-07-27T06:09:36.378Z,100.00
2022-07-27T06:12:03.078Z,100.00
2022-07-27T06:14:31.781Z,100.00
2022-07-27T06:17:01.451Z,100.00
2022-07-27T06:19:35.993Z,100.00
2022-07-27T06:22:03.632Z,100.00
2022-07-27T06:24:30.225Z,100.00
2022-07-27T06:26:56.890Z,100.00
2022-07-27T06:29:23.524Z,100.00
2022-07-27T06:31:50.278Z,100.00
2022-07-27T06:34:17.017Z,100.00
2022-07-27T06:36:45.226Z,100.00
2022-07-27T06:39:13.472Z,100.00
2022-07-27T06:41:40.405Z,100.00
2022-07-27T06:44:07.092Z,100.00
2022-07-27T06:46:34.498Z,100.00
2022-07-27T06:49:01.216Z,100.00
2022-07-27T06:51:27.953Z,100.00
2022-07-27T06:53:54.587Z,100.00
2022-07-27T06:56:22.481Z,100.00
2022-07-27T06:58:49.825Z,100.00
2022-07-27T07:01:16.606Z,100.00
2022-07-27T07:03:43.761Z,100.00
2022-07-27T07:06:10.501Z,100.00
2022-07-27T07:08:37.234Z,100.00
2022-07-27T07:11:03.928Z,100.00
2022-07-27T07:13:35.266Z,100.00
2022-07-27T07:16:04.276Z,100.00
2022-07-27T07:18:30.917Z,100.00
2022-07-27T07:20:57.696Z,100.00
2022-07-27T07:23:24.318Z,100.00
2022-07-27T07:25:51.033Z,100.00
2022-07-27T07:28:22.183Z,100.00
2022-07-27T07:30:49.534Z,100.00
2022-07-27T07:33:16.644Z,100.00
2022-07-27T07:36:13.250Z,100.00
2022-07-27T07:38:30.352Z,100.00
2022-07-27T07:40:59.398Z,100.00
2022-07-27T07:43:29.526Z,100.00
2022-07-27T07:45:59.614Z,100.00
2022-07-27T07:48:26.296Z,100.00
2022-07-27T07:50:53.974Z,100.00
2022-07-27T07:53:24.404Z,100.00
2022-07-27T07:55:56.818Z,100.00
2022-07-27T07:58:23.468Z,100.00
2022-07-27T08:00:50.237Z,100.00
2022-07-27T08:03:17.325Z,100.00
2022-07-27T08:05:44.146Z,100.00
2022-07-27T08:08:10.829Z,100.00
2022-07-27T08:10:37.891Z,100.00
2022-07-27T08:13:04.904Z,100.00
2022-07-27T08:15:35.931Z,100.00
2022-07-27T08:18:05.000Z,100.00
2022-07-27T08:20:31.762Z,100.00
2022-07-27T08:22:58.413Z,100.00
2022-07-27T08:25:25.252Z,100.00
2022-07-27T08:27:51.864Z,100.00
2022-07-27T08:30:19.983Z,100.00
2022-07-27T08:32:50.856Z,100.00
2022-07-27T08:35:21.904Z,100.00
2022-07-27T08:37:49.170Z,100.00
2022-07-27T08:43:05.631Z,100.00
2022-07-27T08:45:33.630Z,100.00
2022-07-27T08:48:01.653Z,100.00
2022-07-27T08:50:30.621Z,100.00
2022-07-27T08:53:12.101Z,100.00
2022-07-27T08:55:43.718Z,100.00
2022-07-27T08:58:11.654Z,100.00
2022-07-27T09:00:42.900Z,100.00
2022-07-27T09:03:18.996Z,100.00
2022-07-27T09:05:57.928Z,100.00
2022-07-27T09:08:28.800Z,100.00
2022-07-27T09:10:59.509Z,100.00
2022-07-27T09:13:30.432Z,100.00
2022-07-27T09:16:17.543Z,100.00
2022-07-27T09:18:45.450Z,100.00
2022-07-27T09:21:23.464Z,100.00
2022-07-27T09:23:59.181Z,100.00
2022-07-27T09:26:35.131Z,100.00
2022-07-27T09:29:03.434Z,100.00
2022-07-27T09:31:30.865Z,100.00
2022-07-27T09:34:02.790Z,100.00
2022-07-27T09:36:30.984Z,100.00
2022-07-27T09:39:07.056Z,100.00
2022-07-27T09:41:49.298Z,100.00
2022-07-27T09:44:34.546Z,100.00
2022-07-27T09:47:20.818Z,100.00
2022-07-27T09:49:50.657Z,100.00
2022-07-27T09:52:29.069Z,100.00
2022-07-27T09:55:03.345Z,100.00
2022-07-27T09:57:29.948Z,100.00
2022-07-27T10:00:16.103Z,100.00
2022-07-27T10:02:44.138Z,100.00
2022-07-27T10:05:11.143Z,100.00
2022-07-27T10:07:39.872Z,100.00
2022-07-27T10:10:07.142Z,100.00
2022-07-27T10:12:33.841Z,100.00
2022-07-27T10:15:00.710Z,100.00
2022-07-27T10:17:28.108Z,100.00
2022-07-27T10:19:56.985Z,100.00
2022-07-27T10:22:49.711Z,100.00
2022-07-27T10:25:16.341Z,100.00
2022-07-27T10:27:46.801Z,100.00
2022-07-27T10:30:15.654Z,100.00
2022-07-27T10:32:44.864Z,100.00
2022-07-27T10:35:36.765Z,100.00
2022-07-27T10:38:15.659Z,100.00
2022-07-27T10:40:43.861Z,100.00
2022-07-27T10:43:16.568Z,100.00
2022-07-27T10:46:01.886Z,100.00
2022-07-27T10:48:47.822Z,100.00
2022-07-27T10:51:19.111Z,100.00
2022-07-27T10:54:11.540Z,100.00
2022-07-27T10:56:47.466Z,100.00
2022-07-27T10:59:14.336Z,100.00
2022-07-27T11:02:01.447Z,100.00
2022-07-27T11:04:28.169Z,100.00
2022-07-27T11:07:24.130Z,100.00
2022-07-27T11:10:03.627Z,100.00
2022-07-27T11:12:31.380Z,100.00
2022-07-27T11:15:01.033Z,100.00
2022-07-27T11:17:57.541Z,100.00
2022-07-27T11:20:24.011Z,100.00
2022-07-27T11:23:40.777Z,100.00
2022-07-27T11:25:37.566Z,100.00
2022-07-27T11:28:09.924Z,100.00
2022-07-27T11:30:37.320Z,100.00
2022-07-27T11:33:04.931Z,100.00
2022-07-27T11:35:31.588Z,100.00
2022-07-27T11:38:03.443Z,100.00
2022-07-27T11:43:45.173Z,100.00
2022-07-27T11:46:26.635Z,100.00
2022-07-27T11:49:06.725Z,100.00
2022-07-27T11:51:36.663Z,100.00
2022-07-27T11:54:10.595Z,100.00
2022-07-27T11:56:39.645Z,100.00
2022-07-27T11:59:12.676Z,100.00
2022-07-27T12:01:45.629Z,100.00
2022-07-27T12:04:18.834Z,100.00
2022-07-27T12:07:02.218Z,100.00
2022-07-27T12:09:36.807Z,100.00
2022-07-27T12:12:07.841Z,100.00
2022-07-27T12:14:40.428Z,100.00
2022-07-27T12:17:10.917Z,100.00
2022-07-27T12:19:38.533Z,100.00
2022-07-27T12:22:05.573Z,100.00
2022-07-27T12:24:41.345Z,100.00
2022-07-27T12:27:13.922Z,100.00
2022-07-27T12:29:59.346Z,100.00
2022-07-27T12:32:31.222Z,100.00
2022-07-27T12:34:58.277Z,100.00
2022-07-27T12:37:33.823Z,100.00
2022-07-27T12:40:00.676Z,100.00
2022-07-27T12:42:35.490Z,100.00
2022-07-27T12:45:13.501Z,100.00
2022-07-27T12:47:41.083Z,100.00
2022-07-27T12:50:09.632Z,100.00
2022-07-27T12:52:38.932Z,100.00
2022-07-27T12:55:11.932Z,100.00
2022-07-27T12:57:55.352Z,100.00
2022-07-27T13:00:30.874Z,100.00
2022-07-27T13:03:00.918Z,100.00
2022-07-27T13:05:27.806Z,100.00
2022-07-27T13:07:54.542Z,100.00
2022-07-27T13:10:22.297Z,100.00
2022-07-27T13:12:49.771Z,100.00
2022-07-27T13:15:17.434Z,100.00
2022-07-27T13:17:45.141Z,100.00
2022-07-27T13:20:13.601Z,100.00
2022-07-27T13:22:42.045Z,100.00
2022-07-27T13:25:15.320Z,100.00
2022-07-27T13:27:44.459Z,100.00
2022-07-27T13:30:13.656Z,100.00
2022-07-27T13:32:41.248Z,100.00
2022-07-27T13:35:09.775Z,100.00
2022-07-27T13:37:38.981Z,100.00
2022-07-27T13:40:06.433Z,97.65
2022-07-27T13:42:33.061Z,95.91
2022-07-27T13:45:10.027Z,95.50
2022-07-27T13:47:39.706Z,95.22
2022-07-27T13:50:15.057Z,92.38
2022-07-27T13:52:46.048Z,91.41
2022-07-27T13:55:14.550Z,89.73
2022-07-27T13:57:41.414Z,88.88
2022-07-27T14:00:08.809Z,88.76
2022-07-27T14:02:35.485Z,89.16
2022-07-27T14:05:04.372Z,89.43
2022-07-27T14:07:32.996Z,89.01
2022-07-27T14:10:18.688Z,88.10
2022-07-27T14:12:45.373Z,88.17
2022-07-27T14:15:12.191Z,87.40
2022-07-27T14:17:39.045Z,88.91
2022-07-27T14:20:06.602Z,88.87
2022-07-27T14:22:33.263Z,88.28
2022-07-27T14:24:59.959Z,89.08
2022-07-27T14:27:26.653Z,89.26
2022-07-27T14:30:08.300Z,89.11
2022-07-27T14:32:35.679Z,90.52
2022-07-27T14:35:02.988Z,90.28
2022-07-27T14:37:29.657Z,92.13
2022-07-27T14:39:56.685Z,92.73
2022-07-27T14:42:25.036Z,93.90
2022-07-27T14:44:51.864Z,94.28
2022-07-27T14:47:20.493Z,93.23
2022-07-27T14:49:47.321Z,92.19
2022-07-27T14:52:14.198Z,91.58
2022-07-27T14:54:41.748Z,91.51
2022-07-27T14:57:08.553Z,92.22
2022-07-27T14:59:35.391Z,93.05
2022-07-27T15:02:02.997Z,94.99
2022-07-27T15:04:29.871Z,96.34
2022-07-27T15:06:59.960Z,96.69
2022-07-27T15:09:28.532Z,96.04
2022-07-27T15:11:55.411Z,94.88
2022-07-27T15:14:22.658Z,94.52
2022-07-27T15:16:50.892Z,92.99
2022-07-27T15:19:18.360Z,92.22
2022-07-27T15:21:47.083Z,92.52
2022-07-27T15:24:14.441Z,92.07
2022-07-27T15:26:41.326Z,92.73
2022-07-27T15:29:10.126Z,91.76
2022-07-27T15:31:43.184Z,88.61
2022-07-27T15:34:10.069Z,89.20
2022-07-27T15:36:43.630Z,88.48
2022-07-27T15:39:12.546Z,86.16
2022-07-27T15:41:39.526Z,84.83
2022-07-27T15:44:07.159Z,84.64
2022-07-27T15:46:34.671Z,83.94
2022-07-27T15:49:04.705Z,83.17
2022-07-27T15:51:32.519Z,84.41
2022-07-27T15:53:59.218Z,84.16
2022-07-27T15:56:25.909Z,84.03
2022-07-27T15:58:52.784Z,80.94
2022-07-27T16:01:21.066Z,80.29
2022-07-27T16:03:49.031Z,79.63
2022-07-27T16:06:16.460Z,78.69
2022-07-27T16:08:45.821Z,78.24
2022-07-27T16:11:12.524Z,78.60
2022-07-27T16:13:39.302Z,77.21
2022-07-27T16:16:24.593Z,76.07
2022-07-27T16:18:53.680Z,75.42
2022-07-27T16:21:23.377Z,75.83
2022-07-27T16:23:54.117Z,77.10
2022-07-27T16:26:21.872Z,76.34
2022-07-27T16:28:50.635Z,76.09
2022-07-27T16:31:20.414Z,74.52
2022-07-27T16:33:49.024Z,73.61
2022-07-27T16:36:21.781Z,74.27
2022-07-27T16:38:51.975Z,73.18
2022-07-27T16:41:20.902Z,73.31
2022-07-27T16:43:47.971Z,72.83
2022-07-27T16:46:16.787Z,74.00
2022-07-27T16:48:43.699Z,73.29
2022-07-27T16:51:15.161Z,73.17
2022-07-27T16:53:44.148Z,72.84
2022-07-27T16:56:11.098Z,73.04
2022-07-27T16:58:38.497Z,73.01
2022-07-27T17:01:06.168Z,73.43
2022-07-27T17:03:33.514Z,74.65
2022-07-27T17:06:05.614Z,74.87
2022-07-27T17:08:33.388Z,75.49
2022-07-27T17:11:01.058Z,76.16
2022-07-27T17:13:33.663Z,75.56
2022-07-27T17:16:02.539Z,73.95
2022-07-27T17:18:29.630Z,74.23
2022-07-27T17:20:56.296Z,74.65
2022-07-27T17:23:23.360Z,75.12
2022-07-27T17:25:50.012Z,74.72
2022-07-27T17:28:17.162Z,74.36
2022-07-27T17:30:43.890Z,74.72
2022-07-27T17:33:10.609Z,73.76
2022-07-27T17:35:37.548Z,73.52
2022-07-27T17:38:06.697Z,76.92
2022-07-27T17:40:34.808Z,77.28
2022-07-27T17:43:01.851Z,77.13
2022-07-27T17:45:28.719Z,76.76
2022-07-27T17:47:56.150Z,76.12
2022-07-27T17:50:22.888Z,76.01
2022-07-27T17:52:49.599Z,76.58
2022-07-27T17:55:16.362Z,76.69
2022-07-27T17:57:45.373Z,77.82
2022-07-27T18:00:12.692Z,77.40
2022-07-27T18:02:39.358Z,77.58
2022-07-27T18:05:06.706Z,77.63
2022-07-27T18:07:39.024Z,77.82
2022-07-27T18:10:08.361Z,77.91
2022-07-27T18:12:35.703Z,78.75
2022-07-27T18:15:21.035Z,79.62
2022-07-27T18:17:47.624Z,80.01
2022-07-27T18:20:14.383Z,80.05
2022-07-27T18:22:41.145Z,82.29
2022-07-27T18:25:09.204Z,82.92
2022-07-27T18:27:36.434Z,82.87
2022-07-27T18:30:05.291Z,82.81
2022-07-27T18:32:32.953Z,83.08
2022-07-27T18:34:59.589Z,82.64
2022-07-27T18:37:26.333Z,84.00
2022-07-27T18:39:53.183Z,85.58
2022-07-27T18:42:20.018Z,89.64
2022-07-27T18:44:47.473Z,95.38
2022-07-27T18:47:14.799Z,100.00
2022-07-27T18:49:41.418Z,100.00
2022-07-27T18:52:08.128Z,100.00
2022-07-27T18:54:34.891Z,100.00
2022-07-27T18:57:01.606Z,100.00
2022-07-27T18:59:28.214Z,100.00
2022-07-27T19:01:54.986Z,100.00
2022-07-27T19:04:21.761Z,100.00
2022-07-27T19:06:51.426Z,100.00
2022-07-27T19:09:18.205Z,100.00
2022-07-27T19:11:44.896Z,100.00
2022-07-27T19:14:11.610Z,100.00
2022-07-27T19:16:38.414Z,100.00
2022-07-27T19:19:07.765Z,100.00
2022-07-27T19:21:38.313Z,100.00
2022-07-27T19:24:05.200Z,100.00
2022-07-27T19:26:31.933Z,100.00
2022-07-27T19:28:58.915Z,100.00
2022-07-27T19:31:25.724Z,100.00
2022-07-27T19:33:53.085Z,100.00
2022-07-27T19:36:23.200Z,100.00
2022-07-27T19:38:50.785Z,100.00
2022-07-27T19:41:18.225Z,100.00
2022-07-27T19:43:44.975Z,100.00
2022-07-27T19:46:12.584Z,100.00
2022-07-27T19:48:40.213Z,100.00
2022-07-27T19:51:07.473Z,100.00
2022-07-27T19:53:35.665Z,100.00
2022-07-27T19:56:03.025Z,100.00
2022-07-27T19:58:30.044Z,100.00
2022-07-27T20:00:56.907Z,100.00
2022-07-27T20:03:24.439Z,100.00
2022-07-27T20:05:51.181Z,100.00
2022-07-27T20:08:18.022Z,100.00
2022-07-27T20:10:45.789Z,100.00
2022-07-27T20:13:14.522Z,100.00
2022-07-27T20:15:41.269Z,100.00
2022-07-27T20:18:08.100Z,100.00
2022-07-27T20:20:34.936Z,100.00
2022-07-27T20:23:01.550Z,100.00
2022-07-27T20:25:28.159Z,100.00
2022-07-27T20:27:54.921Z,100.00
2022-07-27T20:30:21.720Z,100.00
2022-07-27T20:32:49.994Z,100.00
2022-07-27T20:35:17.155Z,100.00
2022-07-27T20:37:45.515Z,100.00
2022-07-27T20:40:12.791Z,100.00
2022-07-27T20:42:43.517Z,100.00
2022-07-27T20:45:14.749Z,100.00
2022-07-27T20:47:42.757Z,100.00
2022-07-27T20:50:11.848Z,100.00
2022-07-27T20:52:40.476Z,100.00
2022-07-27T20:55:08.947Z,100.00
2022-07-27T20:57:35.998Z,100.00
2022-07-27T21:00:03.158Z,100.00
2022-07-27T21:02:29.855Z,100.00
2022-07-27T21:04:57.378Z,100.00
2022-07-27T21:07:25.676Z,100.00
2022-07-27T21:09:52.317Z,100.00
2022-07-27T21:12:19.032Z,100.00
2022-07-27T21:14:45.681Z,100.00
2022-07-27T21:17:12.417Z,100.00
2022-07-27T21:19:39.116Z,100.00
2022-07-27T21:22:05.913Z,100.00
2022-07-27T21:24:32.753Z,100.00
2022-07-27T21:27:04.410Z,100.00
2022-07-27T21:29:32.118Z,100.00
2022-07-27T21:31:59.095Z,100.00
2022-07-27T21:34:25.919Z,100.00
2022-07-27T21:36:52.542Z,100.00
2022-07-27T21:39:20.195Z,100.00
2022-07-27T21:41:46.955Z,100.00
2022-07-27T21:44:14.269Z,100.00
2022-07-27T21:46:41.396Z,100.00
2022-07-27T21:49:10.354Z,100.00
2022-07-27T21:51:37.269Z,100.00
2022-07-27T21:54:04.278Z,100.00
2022-07-27T21:56:31.016Z,100.00
2022-07-27T21:59:08.051Z,100.00
2022-07-27T22:01:34.794Z,100.00
2022-07-27T22:04:02.044Z,100.00
2022-07-27T22:06:28.832Z,100.00
2022-07-27T22:08:55.566Z,100.00
2022-07-27T22:11:22.238Z,100.00
2022-07-27T22:13:48.930Z,100.00
2022-07-27T22:16:16.239Z,100.00
2022-07-27T22:18:42.886Z,100.00
2022-07-27T22:21:09.614Z,100.00
2022-07-27T22:23:36.321Z,100.00
2022-07-27T22:26:02.957Z,100.00
2022-07-27T22:28:29.612Z,100.00
2022-07-27T22:31:00.027Z,100.00
2022-07-27T22:33:44.402Z,100.00
2022-07-27T22:36:12.088Z,100.00
2022-07-27T22:38:39.271Z,100.00
2022-07-27T22:41:05.878Z,100.00
2022-07-27T22:43:32.688Z,100.00
2022-07-27T22:46:00.341Z,100.00
2022-07-27T22:48:27.863Z,100.00
2022-07-27T22:50:54.605Z,100.00
2022-07-27T22:53:21.260Z,100.00
2022-07-27T22:55:48.113Z,100.00
2022-07-27T22:58:15.239Z,100.00
2022-07-27T23:00:44.459Z,100.00
2022-07-27T23:03:11.168Z,100.00
2022-07-27T23:05:38.059Z,100.00
2022-07-27T23:08:05.144Z,100.00
2022-07-27T23:10:46.966Z,100.00
2022-07-27T23:13:15.007Z,100.00
2022-07-27T23:15:42.792Z,100.00
2022-07-27T23:18:09.570Z,100.00
2022-07-27T23:20:36.258Z,100.00
2022-07-27T23:23:03.670Z,100.00
2022-07-27T23:25:39.129Z,100.00
2022-07-27T23:28:06.061Z,100.00
2022-07-27T23:30:32.893Z,100.00
2022-07-27T23:32:59.624Z,100.00
2022-07-27T23:35:26.520Z,100.00
2022-07-27T23:37:53.177Z,100.00
2022-07-27T23:40:19.772Z,100.00
2022-07-27T23:42:46.478Z,100.00
2022-07-27T23:45:14.226Z,100.00
2022-07-27T23:47:41.797Z,100.00
2022-07-27T23:50:09.645Z,100.00
2022-07-27T23:52:36.565Z,100.00
2022-07-27T23:55:03.906Z,100.00
2022-07-27T23:57:30.695Z,100.00
2022-07-27T23:59:57.367Z,100.00
